Terminal Aerodrome Forecast
Issued by NWS Pocatello, ID

Home | Current Version | Previous Version | Text Only | Print | Product List | Glossary On
Versions: 1 2 3 4 5 6 7 8 9 10 11 12 13
000
FTUS45 KPIH 051123
TAFIDA
TAF
KIDA 051123Z 0512/0612 VRB06KT P6SM SCT070 SCT100
     FM051900 24015G25KT P6SM VCTS SCT060CB BKN100
     FM060300 23013KT P6SM SCT070 SCT120=

USA.gov is the U.S. government's official web portal to all federal, state and local government web resources and services.